Tiempo atmosférico en la estación meteorológica de Sineu, Illes Balears (120 m.)



Fecha
DESCASC
Temp. máxima en grados centígrados (hora)
DESCASC
Temp. mínima en grados centígrados (hora)
DESCASC
Temp. media en grados centígrados
DESCASC
Racha de viento máxima en m/sg (hora)
DESCASC
Velocidad máxima media en intervalos de 10 minutos(hora)
DESCASC
Precipitaciones diarias en mm
DESCASC
Precipitaciones de 00:00 a 06:00 en mm
DESCASC
Precipitaciones de 06:00 a 12:00 en mm
DESCASC
Precipitaciones de 12:00 a 18:00 en mm
DESCASC
Precipitaciones de 18:00 a 24:00 en mm
DESCASC
22-11-2020 15.8 (13:20) 6.6 (23:40) 11.2 10 (11:10) 5.83 (11:10) 0 0 0 0 0
21-11-2020 15.3 (14:50) 8.9 (23:20) 12.1 13.33 (12:40) 8.33 (12:40) 0 0 0 0 0
20-11-2020 17 (14:30) 11.9 (23:59) 14.4 9.44 (11:50) 6.39 (11:50) 0 0 0 0 0
19-11-2020 21.1 (14:50) 8 (00:00) 14.6 5.28 (14:30) 3.33 (16:30) 0 0 0 0 0
18-11-2020 20.9 (14:40) 7.1 (00:00) 14 3.89 (12:10) 2.5 (16:10) 0 0 0 0 0
17-11-2020 20.6 (14:20) 9.6 (00:00) 15.1 6.11 (15:50) 4.17 (16:00) 0 0 0 0 0
16-11-2020 19.2 (13:30) 12.3 (00:00) 15.8 9.44 (13:40) 6.39 (14:20) 0 0 0 0 0
15-11-2020 21.4 (14:30) 14.2 (00:00) 17.8 9.44 (15:00) 5.28 (14:00) 0 0 0 0 0
14-11-2020 21.8 (13:00) 13.6 (00:00) 17.7 4.17 (15:00) 3.06 (15:10) 0 0 0 0 0
13-11-2020 21.6 (13:20) 10.7 (00:00) 16.2 6.67 (13:40) 3.61 (15:10) 0 0 0 0 0
12-11-2020 21.1 (13:20) 9.3 (00:00) 15.2 4.72 (16:10) 2.78 (15:30) 0 0 0 0 0
11-11-2020 20.2 (12:30) 8.3 (00:00) 14.3 4.44 (14:30) 2.78 (14:10) 0 0 0 0 0
10-11-2020 21 (13:50) 9.3 (00:00) 15.2 6.67 (15:50) 4.17 (15:50) 0 0 0 0 0
09-11-2020 22.2 (14:10) 12.1 (00:00) 17.2 5 (14:50) 3.06 (15:30) 0 0 0 0 0
08-11-2020 22.7 (13:20) 10.8 (00:00) 16.8 3.61 (15:10) 2.5 (16:30) 0 0 0 0 0
07-11-2020 22.8 (16:00) 15.7 (00:00) 19.2 8.61 (09:40) 4.17 (09:40) 6.8 0 1.2 5.6 0
06-11-2020 21.5 (15:10) 17.7 (00:00) 19.6 8.06 (15:00) 4.72 (15:00) 0 0 0 0 0
05-11-2020 20.4 (11:30) 15.1 (00:00) 17.8 9.72 (10:50) 5.28 (13:00) 0 0 0 0 0
04-11-2020 17.9 (11:30) 13.9 (00:00) 15.9 9.17 (15:50) 6.11 (13:50) 0 0 0 0 0
03-11-2020 21.5 (13:10) 12.1 (00:00) 16.8 6.94 (21:00) 4.17 (16:30) 0 0 0 0 0
02-11-2020 23.6 (14:30) 11.4 (00:00) 17.5 6.11 (16:10) 3.33 (10:30) 0.2 0.2 0 0 0
01-11-2020 23.2 (14:30) 10 (00:00) 16.6 5.56 (13:50) 3.33 (15:40) 0 0 0 0 0
31-10-2020 24.3 (14:00) 9.4 (00:00) 16.8 5.28 (15:00) 2.78 (16:00) 0.2 0.2 0 0 0
30-10-2020 24.2 (14:20) 9.5 (00:00) 16.9 5 (14:10) 2.78 (10:30) 0 0 0 0 0
29-10-2020 23.4 (14:00) 9.7 (00:00) 16.5 5.28 (16:00) 3.33 (16:00) 0 0 0 0 0
28-10-2020 23.3 (14:20) 8.3 (00:00) 15.8 6.94 (15:50) 3.89 (16:00) 0 0 0 0 0
27-10-2020 19.7 (15:20) 12.4 (00:00) 16.1 9.17 (01:00) 5.28 (01:30) 0 0 0 0 0
26-10-2020 18.1 (02:10) 14.8 (00:00) 16.5 11.39 (14:20) 5.83 (13:40) 0.8 0.2 0.6 0 0

Gráficas

Temp. máximas Temp. mínimas Temp. medias Precipitaciones Rachas de viento máximas Velocidades máximas media en intervalos de 10 minutos

Datos horarios

Fecha y hora oficial Temperatura (ºC) Velocidad del viento (km/h) Dirección del viento Racha (km/h) Dirección de racha Precipitación (mm) Presión (hPa) Tendencia (hPa) Humedad (%)
2020-11-24 23:00:00 12.9 3 Sur 5 Sudeste 0 -- -- 64
2020-11-24 22:00:00 13.1 3 Sur 4 Sur 0 -- -- 62
2020-11-24 21:00:00 13.3 3 Sur 6 Sur 0 -- -- 61
2020-11-24 20:00:00 13.1 2 Sur 8 Sur 0 -- -- 61
2020-11-24 19:00:00 11.8 3 Sur 7 Sur 0 -- -- 65
2020-11-24 18:00:00 13.1 3 Sudoeste 8 Sudoeste 0 -- -- 59
2020-11-24 17:00:00 15.9 6 Sudoeste 17 Sudoeste 0 -- -- 50
2020-11-24 16:00:00 16.5 4 Sudoeste 17 Sur 0 -- -- 49
2020-11-24 15:00:00 16.6 5 Sudoeste 12 Sudoeste 0 -- -- 49
2020-11-24 14:00:00 17.1 6 Sur 17 Sur 0 -- -- 47
2020-11-24 13:00:00 16.6 6 Oeste 17 Sudoeste 0 -- -- 49
2020-11-24 12:00:00 16.3 5 Sur 12 Sudeste 0 -- -- 51
2020-11-24 11:00:00 16.2 4 Sudeste 9 Sudeste 0 -- -- 54
2020-11-24 10:00:00 12.8 0 Calma -- -- 0 -- -- 74
2020-11-24 09:00:00 7 0 Calma 2 Oeste 0 -- -- 89
2020-11-24 08:00:00 4.3 0 Calma 3 Sur 0 -- -- 87
2020-11-24 07:00:00 4.5 0 Calma 2 Sur 0 -- -- 86
2020-11-24 06:00:00 4 0 Calma -- -- 0 -- -- 84
2020-11-24 05:00:00 4.1 0 Calma -- -- 0 -- -- 83
2020-11-24 04:00:00 4.6 0 Calma 0 Calma 0 -- -- 83
2020-11-24 03:00:00 4.7 0 Calma 0 Calma 0 -- -- 82
2020-11-24 02:00:00 5.2 0 Calma 2 Sudoeste 0 -- -- 81
2020-11-24 01:00:00 5.6 0 Calma 0 Calma 0 -- -- 80
2020-11-24 00:00:00 6.4 0 Calma 2 Sudeste 0 -- -- 81
2020-11-23 23:00:00 6.7 0 Calma 2 Sur 0 -- -- 77
2020-11-23 22:00:00 7.2 0 Calma -- -- 0 -- -- 77
2020-11-23 21:00:00 8.3 0 Calma 3 Sur 0 -- -- 74
2020-11-23 20:00:00 9.7 0 Calma 4 Sur 0 -- -- 69
2020-11-23 19:00:00 11.4 0 Calma 6 Sudeste 0 -- -- 65
2020-11-23 18:00:00 12.5 0 Calma 6 Nordeste 0 -- -- 61
2020-11-23 17:00:00 14.5 5 Nordeste 11 Nordeste 0 -- -- 53
2020-11-23 16:00:00 16.2 9 Nordeste 18 Norte 0 -- -- 47
2020-11-23 15:00:00 16.8 2 Nordeste 17 Nordeste 0 -- -- 42
2020-11-23 14:00:00 16.9 3 Norte 14 Norte 0 -- -- 42
2020-11-23 13:00:00 16.7 3 Sudoeste 15 Este 0 -- -- 42
2020-11-23 12:00:00 16.3 6 Este 14 Nordeste 0 -- -- 43
2020-11-23 11:00:00 15.4 8 Nordeste 14 Este 0 -- -- 48
2020-11-23 10:00:00 13.2 0 Calma 3 Nordeste 0 -- -- 62
2020-11-23 09:00:00 7.3 0 Calma 2 Sur 0 -- -- 83
2020-11-23 08:00:00 4.7 0 Calma 3 Sur 0 -- -- 85
2020-11-23 07:00:00 4.2 0 Calma -- -- 0 -- -- 84
2020-11-23 06:00:00 4.1 0 Calma 0 Calma 0 -- -- 83
2020-11-23 05:00:00 4.1 0 Calma 3 Sudoeste 0 -- -- 83
2020-11-23 04:00:00 4.8 0 Calma 6 Sur 0 -- -- 83
2020-11-23 03:00:00 4.9 0 Calma 2 Sudeste 0 -- -- 81
2020-11-23 02:00:00 5.4 0 Calma 2 Sudeste 0 -- -- 80
2020-11-23 01:00:00 6 0 Calma 2 Sudeste 0 -- -- 80
2020-11-23 00:00:00 6.9 0 Calma 5 Noroeste 0 -- -- 80
2020-11-22 23:00:00 7.1 0 Calma 2 Sudeste 0 -- -- 79
2020-11-22 22:00:00 7.1 0 Calma 5 Oeste 0 -- -- 77
2020-11-22 21:00:00 8.2 0 Calma 4 Sudoeste 0 -- -- 74
2020-11-22 20:00:00 8.8 0 Calma 2 Sudoeste 0 -- -- 69
2020-11-22 19:00:00 10.1 0 Calma 4 Norte 0 -- -- 66
2020-11-22 18:00:00 12.3 4 Norte 16 Norte 0 -- -- 58
2020-11-22 17:00:00 14.4 12 Norte 24 Norte 0 -- -- 50
2020-11-22 16:00:00 15.3 16 Norte 30 Nordeste 0 -- -- 46
2020-11-22 15:00:00 15.4 18 Norte 31 Norte 0 -- -- 44
2020-11-22 14:00:00 15.4 19 Norte 33 Nordeste 0 -- -- 43
2020-11-22 13:00:00 15.6 15 Norte 30 Norte 0 -- -- 45
2020-11-22 12:00:00 14.6 19 Norte 36 Norte 0 -- -- 49
2020-11-22 11:00:00 14.3 19 Norte 30 Norte 0 -- -- 53
2020-11-22 10:00:00 13.5 14 Norte 23 Norte 0 -- -- 58
2020-11-22 09:00:00 10.3 6 Noroeste 10 Noroeste 0 -- -- 71
2020-11-22 08:00:00 7.9 4 Noroeste 8 Noroeste 0 -- -- 76
2020-11-22 07:00:00 8.1 3 Noroeste 6 Noroeste 0 -- -- 75
2020-11-22 06:00:00 8.6 3 Norte 6 Noroeste 0 -- -- 75
2020-11-22 05:00:00 7.8 3 Noroeste 6 Oeste 0 -- -- 76
2020-11-22 04:00:00 7.7 3 Oeste 5 Oeste 0 -- -- 78
2020-11-22 03:00:00 8.6 3 Oeste 8 Noroeste 0 -- -- 73
2020-11-22 02:00:00 9.4 3 Noroeste 8 Oeste 0 -- -- 71
2020-11-22 01:00:00 10.3 4 Noroeste 5 Noroeste 0 -- -- 69
2020-11-22 00:00:00 9.8 4 Noroeste 12 Norte 0 -- -- 71
2020-11-21 23:00:00 9.3 0 Calma 10 Norte 0 -- -- 71
2020-11-21 22:00:00 10.1 6 Norte 12 Norte 0 -- -- 69
2020-11-21 21:00:00 10.8 6 Norte 10 Noroeste 0 -- -- 68
2020-11-21 20:00:00 10.7 6 Norte 10 Norte 0 -- -- 69
2020-11-21 19:00:00 11.7 6 Norte 15 Norte 0 -- -- 64
2020-11-21 18:00:00 12 4 Noroeste 14 Norte 0 -- -- 63
2020-11-21 17:00:00 13.4 12 Norte 31 Norte 0 -- -- 57
2020-11-21 16:00:00 14.4 15 Norte 28 Norte 0 -- -- 53
2020-11-21 15:00:00 15 18 Nordeste 35 Nordeste 0 -- -- 51
2020-11-21 14:00:00 14.8 23 Norte 40 Norte 0 -- -- 47
2020-11-21 13:00:00 14.7 26 Norte 48 Norte 0 -- -- 41
2020-11-21 12:00:00 14.4 28 Norte 42 Norte 0 -- -- 39
2020-11-21 11:00:00 13.9 25 Norte 39 Norte 0 -- -- 46
2020-11-21 10:00:00 13.4 23 Norte 40 Norte 0 -- -- 51
2020-11-21 09:00:00 12.1 17 Norte 36 Norte 0 -- -- 55
2020-11-21 08:00:00 11.3 17 Norte 28 Norte 0 -- -- 56
2020-11-21 07:00:00 10.8 7 Norte 27 Norte 0 -- -- 54
2020-11-21 06:00:00 11.1 13 Norte 24 Norte 0 -- -- 52
2020-11-21 05:00:00 11.4 16 Norte 27 Nordeste 0 -- -- 50
2020-11-21 04:00:00 11.2 14 Norte 29 Norte 0 -- -- 53
2020-11-21 03:00:00 11 12 Norte 24 Norte 0 -- -- 56
2020-11-21 02:00:00 10.6 9 Norte 22 Norte 0 -- -- 56
2020-11-21 01:00:00 10.9 6 Norte 17 Norte 0 -- -- 54
2020-11-21 00:00:00 11.9 9 Nordeste 32 Norte 0 -- -- 49
2020-11-20 23:00:00 12.4 12 Norte 28 Norte 0 -- -- 45
2020-11-20 22:00:00 13.1 14 Norte 30 Norte 0 -- -- 41
2020-11-20 21:00:00 13.4 15 Nordeste 28 Nordeste 0 -- -- 48
2020-11-20 20:00:00 13.1 12 Nordeste 21 Norte 0 -- -- 48
2020-11-20 19:00:00 13.2 13 Nordeste 22 Nordeste 0 -- -- 43
2020-11-20 18:00:00 13.5 6 Nordeste 18 Nordeste 0 -- -- 35
2020-11-20 17:00:00 15.6 13 Norte 25 Norte 0 -- -- 29
2020-11-20 16:00:00 16.5 15 Norte 27 Norte 0 -- -- 43
2020-11-20 15:00:00 17 18 Norte 33 Norte 0 -- -- 45
2020-11-20 14:00:00 16.8 20 Norte 33 Norte 0 -- -- 42
2020-11-20 13:00:00 16.7 19 Norte 32 Nordeste 0 -- -- 39
2020-11-20 12:00:00 16.5 22 Norte 34 Norte 0 -- -- 48
2020-11-20 11:00:00 14.8 16 Norte 30 Norte 0 -- -- 60
2020-11-20 10:00:00 14.7 10 Norte 18 Norte 0 -- -- 62
2020-11-20 09:00:00 14.2 11 Norte 20 Norte 0 -- -- 64
2020-11-20 08:00:00 14.3 12 Norte 21 Nordeste 0 -- -- 66
2020-11-20 07:00:00 14.3 5 Norte 12 Norte 0 -- -- 68
2020-11-20 06:00:00 14.5 5 Nordeste 14 Nordeste 0 -- -- 65
2020-11-20 05:00:00 14.8 9 Nordeste 15 Nordeste 0 -- -- 61
2020-11-20 04:00:00 14.5 5 Nordeste 10 Nordeste 0 -- -- 62
2020-11-20 03:00:00 14.6 6 Nordeste 12 Este 0 -- -- 63
2020-11-20 02:00:00 14.4 5 Nordeste 16 Nordeste 0 -- -- 73
2020-11-20 01:00:00 12.3 0 Calma 9 Norte 0 -- -- 81
2020-11-20 00:00:00 13.3 0 Calma 10 Sudoeste 0 -- -- 77
2020-11-19 23:00:00 15.1 4 Sur 10 Sudeste 0 -- -- 71
2020-11-19 22:00:00 15.6 2 Sudoeste 7 Sur 0 -- -- 73
2020-11-19 21:00:00 14.4 0 Calma 6 Sur 0 -- -- 75
2020-11-19 20:00:00 14.4 0 Calma 5 Sur 0 -- -- 73
2020-11-19 19:00:00 15 0 Calma 5 Noroeste 0 -- -- 70
2020-11-19 18:00:00 17.2 2 Noroeste 9 Este 0 -- -- 62
2020-11-19 17:00:00 19.5 9 Nordeste 18 Nordeste 0 -- -- 53
2020-11-19 16:00:00 20.8 8 Nordeste 15 Nordeste 0 -- -- 47
2020-11-19 15:00:00 21.1 9 Nordeste 19 Nordeste 0 -- -- 45
2020-11-19 14:00:00 20.7 2 Noroeste 15 Noroeste 0 -- -- 51
2020-11-19 13:00:00 19.5 6 Norte 14 Noroeste 0 -- -- 56
2020-11-19 12:00:00 18.5 6 Noroeste 12 Noroeste 0 -- -- 60
2020-11-19 11:00:00 17.9 3 Nordeste 9 Norte 0 -- -- 66
2020-11-19 10:00:00 14.3 0 Calma 2 Nordeste 0 -- -- 82
2020-11-19 09:00:00 12 0 Calma 3 Sudoeste 0 -- -- 97
2020-11-19 08:00:00 11.5 0 Calma 6 Norte 0 -- -- 96
2020-11-19 07:00:00 11.3 0 Calma 6 Sur 0 -- -- 96
2020-11-19 06:00:00 11.7 4 Sur 6 Sur 0 -- -- 98
2020-11-19 05:00:00 9.5 0 Calma 0 Calma 0 -- -- 90
2020-11-19 04:00:00 8.2 0 Calma 0 Calma 0 -- -- 87
2020-11-19 03:00:00 8.1 0 Calma -- -- 0 -- -- 86
2020-11-19 02:00:00 8.4 0 Calma -- -- 0 -- -- 85
2020-11-19 01:00:00 8.7 0 Calma 0 Calma 0 -- -- 84
2020-11-19 00:00:00 9.3 0 Calma -- -- 0 -- -- 85
2020-11-18 23:00:00 10 0 Calma 3 Sudoeste 0 -- -- 83
2020-11-18 22:00:00 10.8 0 Calma 4 Sur 0 -- -- 82
2020-11-18 21:00:00 11.5 0 Calma 4 Sur 0 -- -- 81
2020-11-18 20:00:00 12.6 0 Calma 5 Sur 0 -- -- 78
2020-11-18 19:00:00 13.6 0 Calma 2 Este 0 -- -- 73
2020-11-18 18:00:00 16.1 0 Calma 9 Norte 0 -- -- 66
2020-11-18 17:00:00 18.5 7 Nordeste 13 Nordeste 0 -- -- 58
2020-11-18 16:00:00 19.9 8 Nordeste 14 Este 0 -- -- 49
2020-11-18 15:00:00 20.5 3 Noroeste 11 Nordeste 0 -- -- 39
2020-11-18 14:00:00 20.3 3 Noroeste 10 Nordeste 0 -- -- 40
2020-11-18 13:00:00 19.5 8 Nordeste 14 Nordeste 0 -- -- 43
2020-11-18 12:00:00 18.7 7 Este 12 Nordeste 0 -- -- 55
2020-11-18 11:00:00 17.5 7 Norte 13 Norte 0 -- -- 66
2020-11-18 10:00:00 15.8 0 Calma 3 Norte 0 -- -- 74
2020-11-18 09:00:00 9.9 0 Calma 3 Sur 0 -- -- 92
2020-11-18 08:00:00 7.1 0 Calma 3 Sur 0 -- -- 91
2020-11-18 07:00:00 7.1 0 Calma 4 Nordeste 0 -- -- 90
2020-11-18 06:00:00 7.6 0 Calma 4 Sudoeste 0 -- -- 89
2020-11-18 05:00:00 8.1 0 Calma 4 Sur 0 -- -- 89
2020-11-18 04:00:00 8.1 0 Calma 2 Sudoeste 0 -- -- 87
2020-11-18 03:00:00 8.6 0 Calma 0 Calma 0 -- -- 87
2020-11-18 02:00:00 9.1 0 Calma -- -- 0 -- -- 86
2020-11-18 01:00:00 9.8 0 Calma 4 Sudoeste 0 -- -- 86
2020-11-18 00:00:00 10.3 0 Calma 3 Sudeste 0 -- -- 85
2020-11-17 23:00:00 11.1 0 Calma 5 Sudoeste 0 -- -- 83
2020-11-17 22:00:00 12 0 Calma 4 Sudoeste 0 -- -- 82
2020-11-17 21:00:00 12.7 0 Calma 6 Sur 0 -- -- 79
2020-11-17 20:00:00 14.2 0 Calma 4 Nordeste 0 -- -- 74
2020-11-17 19:00:00 15.7 0 Calma 9 Nordeste 0 -- -- 69
2020-11-17 18:00:00 16.8 6 Este 13 Nordeste 0 -- -- 66
2020-11-17 17:00:00 18.8 8 Este 21 Nordeste 0 -- -- 54
2020-11-17 16:00:00 19.6 15 Este 22 Este 0 -- -- 52
2020-11-17 15:00:00 20.6 3 Este 10 Nordeste 0 -- -- 46
2020-11-17 14:00:00 20.4 6 Nordeste 12 Nordeste 0 -- -- 46
2020-11-17 13:00:00 20.1 4 Norte 15 Noroeste 0 -- -- 49
2020-11-17 12:00:00 19.4 6 Norte 10 Nordeste 0 -- -- 54
2020-11-17 11:00:00 18.4 3 Oeste 8 Sur 0 -- -- 59
2020-11-17 10:00:00 16.6 0 Calma 3 Sudeste 0 -- -- 70
2020-11-17 09:00:00 11.8 0 Calma 3 Sur 0 -- -- 87
2020-11-17 08:00:00 9.6 0 Calma 2 Sur 0 -- -- 88
2020-11-17 07:00:00 10 0 Calma 5 Sur 0 -- -- 87
2020-11-17 06:00:00 11 2 Sur 6 Sur 0 -- -- 88
2020-11-17 05:00:00 10.6 0 Calma 4 Sudoeste 0 -- -- 87
2020-11-17 04:00:00 11.1 0 Calma 6 Nordeste 0 -- -- 85
2020-11-17 03:00:00 11.3 0 Calma 5 Sur 0 -- -- 83
2020-11-17 02:00:00 12.5 0 Calma 6 Sudoeste 0 -- -- 81
2020-11-17 01:00:00 12.7 0 Calma 4 Sudoeste 0 -- -- 81
2020-11-17 00:00:00 12.5 3 Sudoeste 4 Sudoeste 0 -- -- 83
2020-11-16 23:00:00 12.3 0 Calma -- -- 0 -- -- 80
2020-11-16 22:00:00 13.3 0 Calma 2 Oeste 0 -- -- 78
2020-11-16 21:00:00 13.5 0 Calma 2 Noroeste 0 -- -- 75
2020-11-16 20:00:00 14.1 0 Calma -- -- 0 -- -- 74
2020-11-16 19:00:00 14 0 Calma 5 Norte 0 -- -- 72
2020-11-16 18:00:00 15.4 4 Nordeste 20 Nordeste 0 -- -- 66
2020-11-16 17:00:00 16.6 11 Nordeste 26 Nordeste 0 -- -- 62
2020-11-16 16:00:00 17.4 16 Nordeste 30 Nordeste 0 -- -- 61
2020-11-16 15:00:00 18 17 Nordeste 34 Norte 0 -- -- 58
2020-11-16 14:00:00 18.3 21 Nordeste 34 Nordeste 0 -- -- 55
2020-11-16 13:00:00 18.5 22 Nordeste 33 Nordeste 0 -- -- 58
2020-11-16 12:00:00 18.2 20 Nordeste 30 Nordeste 0 -- -- 65
2020-11-16 11:00:00 17.6 18 Nordeste 29 Nordeste 0 -- -- 70
2020-11-16 10:00:00 17.7 19 Nordeste 32 Norte 0 -- -- 76
2020-11-16 09:00:00 17.9 15 Nordeste 30 Nordeste 0 -- -- 80
2020-11-16 08:00:00 16.9 0 Calma 6 Nordeste 0 -- -- 78
2020-11-16 07:00:00 18.5 3 Este 19 Sudoeste 0 -- -- 70
2020-11-16 06:00:00 19.1 12 Sudoeste 21 Sudoeste 0 -- -- 70
2020-11-16 05:00:00 18.8 10 Sudoeste 18 Sudoeste 0 -- -- 72
2020-11-16 04:00:00 18.5 5 Sur 21 Sudoeste 0 -- -- 74
2020-11-16 03:00:00 18.5 12 Sudoeste 32 Sudoeste 0 -- -- 81
2020-11-16 02:00:00 18.4 16 Sudoeste 32 Sur 0 -- -- 85
2020-11-16 01:00:00 18.2 15 Sudoeste 26 Sudoeste 0 -- -- 86
2020-11-16 00:00:00 17.8 12 Sudoeste 24 Sudoeste 0 -- -- 85
2020-11-15 23:00:00 17.6 13 Sudoeste 26 Sudoeste 0 -- -- 80
2020-11-15 22:00:00 17.7 13 Sudoeste 34 Sudoeste 0 -- -- 78
2020-11-15 21:00:00 17.6 15 Sudoeste 29 Sudoeste 0 -- -- 76
2020-11-15 20:00:00 17.6 13 Sudoeste 28 Sudoeste 0 -- -- 73
2020-11-15 19:00:00 17.5 14 Sudoeste 32 Sudoeste 0 -- -- 71
2020-11-15 18:00:00 18 15 Sudoeste 33 Sudoeste 0 -- -- 68
2020-11-15 17:00:00 19.3 19 Sudoeste 31 Sudoeste 0 -- -- 62
2020-11-15 16:00:00 20.8 13 Sudoeste 32 Sudoeste 0 -- -- 58
2020-11-15 15:00:00 21 17 Sudoeste 34 Sudoeste 0 -- -- 58
2020-11-15 14:00:00 21 19 Sudoeste 33 Sudoeste 0 -- -- 58
2020-11-15 13:00:00 20.6 17 Sudoeste 32 Sudoeste 0 -- -- 63
2020-11-15 12:00:00 20.5 13 Oeste 24 Sudoeste 0 -- -- 67
2020-11-15 11:00:00 19.6 11 Sudoeste 25 Sudoeste 0 -- -- 69
2020-11-15 10:00:00 18.7 10 Sudoeste 18 Sudoeste 0 -- -- 79
2020-11-15 09:00:00 16.8 4 Sudoeste 10 Sudoeste 0 -- -- 92
2020-11-15 08:00:00 15.3 0 Calma 7 Sudoeste 0 -- -- 95
2020-11-15 07:00:00 14.7 3 Sudoeste 9 Sudoeste 0 -- -- 95
2020-11-15 06:00:00 15.1 7 Sudoeste 12 Sudoeste 0 -- -- 97
2020-11-15 05:00:00 14.3 0 Calma 4 Sur 0 -- -- 91
2020-11-15 04:00:00 15 3 Sur 5 Sur 0 -- -- 92
2020-11-15 03:00:00 15.3 0 Calma 3 Sudeste 0 -- -- 90
2020-11-15 02:00:00 15.6 0 Calma 3 Sur 0 -- -- 90
2020-11-15 01:00:00 15.8 0 Calma 3 Sur 0 -- -- 89
2020-11-15 00:00:00 16.1 0 Calma 4 Sur 0 -- -- 89
2020-11-14 23:00:00 16.2 0 Calma 2 Sur 0 -- -- 88
2020-11-14 22:00:00 16.4 0 Calma -- -- 0 -- -- 87
2020-11-14 21:00:00 16.8 0 Calma 4 Sudoeste 0 -- -- 85
2020-11-14 20:00:00 17 0 Calma 3 Sudoeste 0 -- -- 82
2020-11-14 19:00:00 17.7 0 Calma 5 Sudeste 0 -- -- 79
2020-11-14 18:00:00 18.6 0 Calma 10 Nordeste 0 -- -- 76
2020-11-14 17:00:00 19.3 5 Nordeste 13 Nordeste 0 -- -- 74
2020-11-14 16:00:00 20.1 9 Norte 14 Nordeste 0 -- -- 69
2020-11-14 15:00:00 21.1 10 Nordeste 15 Nordeste 0 -- -- 63
2020-11-14 14:00:00 21.8 4 Nordeste 13 Noroeste 0 -- -- 56
2020-11-14 13:00:00 21.8 4 Nordeste 9 Nordeste 0 -- -- 56
2020-11-14 12:00:00 20.2 0 Calma 5 Este 0 -- -- 67
2020-11-14 11:00:00 19.7 3 Este 6 Norte 0 -- -- 72
2020-11-14 10:00:00 18.5 0 Calma 5 Norte 0 -- -- 83
2020-11-14 09:00:00 14.8 0 Calma 2 Sudoeste 0 -- -- 97
2020-11-14 08:00:00 13.6 0 Calma 3 Oeste 0 -- -- 95
2020-11-14 07:00:00 14 0 Calma 2 Oeste 0 -- -- 95
2020-11-14 06:00:00 14.2 0 Calma 2 Noroeste 0 -- -- 94
2020-11-14 05:00:00 14.5 0 Calma -- -- 0 -- -- 94
2020-11-14 04:00:00 14.5 0 Calma 2 Noroeste 0 -- -- 93
2020-11-14 03:00:00 15.1 0 Calma 3 Oeste 0 -- -- 94
2020-11-14 02:00:00 14.9 0 Calma 0 Calma 0 -- -- 91
2020-11-14 01:00:00 14.2 0 Calma 0 Calma 0 -- -- 88
2020-11-14 00:00:00 14.6 0 Calma -- -- 0 -- -- 89
2020-11-13 23:00:00 14.1 0 Calma 2 Noroeste 0 -- -- 87
2020-11-13 22:00:00 14.5 0 Calma -- -- 0 -- -- 86
2020-11-13 21:00:00 14.5 0 Calma 3 Oeste 0 -- -- 83
2020-11-13 20:00:00 15.3 0 Calma 3 Noroeste 0 -- -- 81
2020-11-13 19:00:00 17.3 0 Calma 9 Nordeste 0 -- -- 76
2020-11-13 18:00:00 18.3 4 Nordeste 13 Este 0 -- -- 71
2020-11-13 17:00:00 19.9 7 Este 16 Sudeste 0 -- -- 64
2020-11-13 16:00:00 20.7 8 Este 19 Este 0 -- -- 54
2020-11-13 15:00:00 21.5 12 Nordeste 19 Nordeste 0 -- -- 52
2020-11-13 14:00:00 21.4 10 Este 24 Este 0 -- -- 51
2020-11-13 13:00:00 21.4 12 Sudeste 22 Sudeste 0 -- -- 54
2020-11-13 12:00:00 20.7 10 Nordeste 21 Nordeste 0 -- -- 63
2020-11-13 11:00:00 19.2 8 Nordeste 13 Nordeste 0 -- -- 73
2020-11-13 10:00:00 16.7 3 Norte 6 Norte 0 -- -- 96
2020-11-13 09:00:00 12.2 0 Calma 2 Sudoeste 0 -- -- 96
2020-11-13 08:00:00 10.9 0 Calma 3 Sudoeste 0 -- -- 95
2020-11-13 07:00:00 10.8 0 Calma 2 Sur 0 -- -- 91
2020-11-13 06:00:00 10.8 0 Calma 2 Sudeste 0 -- -- 91
2020-11-13 05:00:00 11.3 0 Calma 0 Calma 0 -- -- 91
2020-11-13 04:00:00 11.1 0 Calma -- -- 0 -- -- 87
2020-11-13 03:00:00 10.9 0 Calma -- -- 0 -- -- 87
2020-11-13 02:00:00 10.8 0 Calma -- -- 0 -- -- 86
2020-11-13 01:00:00 11 0 Calma 3 Sudoeste 0 -- -- 86
2020-11-13 00:00:00 10.9 0 Calma -- -- 0 -- -- 84
2020-11-12 23:00:00 11.5 0 Calma -- -- 0 -- -- 84
2020-11-12 22:00:00 12.2 0 Calma 2 Sur 0 -- -- 82
2020-11-12 21:00:00 13.4 0 Calma 3 Sudoeste 0 -- -- 81
2020-11-12 20:00:00 14.8 0 Calma 4 Este 0 -- -- 77
2020-11-12 19:00:00 16.7 3 Este 9 Este 0 -- -- 72
2020-11-12 18:00:00 17.3 3 Sudeste 12 Este 0 -- -- 68
2020-11-12 17:00:00 18.6 7 Este 17 Este 0 -- -- 62
2020-11-12 16:00:00 19.4 8 Este 15 Este 0 -- -- 58
2020-11-12 15:00:00 21 4 Sur 10 Sudeste 0 -- -- 40
2020-11-12 14:00:00 20.8 6 Sudeste 15 Este 0 -- -- 41
2020-11-12 13:00:00 20.7 3 Este 12 Nordeste 0 -- -- 47
2020-11-12 12:00:00 19.9 2 Este 9 Nordeste 0 -- -- 53
2020-11-12 11:00:00 18.4 3 Norte 8 Norte 0 -- -- 67
2020-11-12 10:00:00 16.4 0 Calma 3 Norte 0 -- -- 77
2020-11-12 09:00:00 10.3 0 Calma 2 Sudoeste 0 -- -- 96
2020-11-12 08:00:00 9.5 0 Calma 0 Calma 0 -- -- 93
2020-11-12 07:00:00 9.9 0 Calma -- -- 0 -- -- 92
2020-11-12 06:00:00 10.2 0 Calma 3 Sur 0 -- -- 93
2020-11-12 05:00:00 9.8 0 Calma 3 Sudeste 0 -- -- 92
2020-11-12 04:00:00 10 0 Calma 0 Calma 0 -- -- 91
2020-11-12 03:00:00 9.9 0 Calma 2 Sudeste 0 -- -- 88
2020-11-12 02:00:00 10.5 0 Calma 0 Calma 0 -- -- 87
2020-11-12 01:00:00 11.7 0 Calma 7 Sudeste 0 -- -- 87
2020-11-12 00:00:00 11.8 0 Calma 2 Oeste 0 -- -- 85
2020-11-11 23:00:00 12.8 0 Calma 5 Sudoeste 0 -- -- 82
2020-11-11 22:00:00 14.7 4 Sur 5 Sudeste 0 -- -- 79
2020-11-11 21:00:00 16.2 2 Sur 5 Sudeste 0 -- -- 74
2020-11-11 20:00:00 16.9 3 Sur 6 Sur 0 -- -- 71
2020-11-11 19:00:00 17.1 3 Sudoeste 10 Sudeste 0 -- -- 69
2020-11-11 18:00:00 17.4 4 Sudeste 11 Sudeste 0 -- -- 67
2020-11-11 17:00:00 18.1 6 Este 14 Sudeste 0 -- -- 65
2020-11-11 16:00:00 19 8 Nordeste 13 Nordeste 0 -- -- 62
2020-11-11 15:00:00 19.6 8 Nordeste 16 Nordeste 0 -- -- 59
2020-11-11 14:00:00 19.8 9 Nordeste 15 Nordeste 0 -- -- 59
2020-11-11 13:00:00 19.5 9 Norte 15 Norte 0 -- -- 59
2020-11-11 12:00:00 19.5 6 Este 14 Nordeste 0 -- -- 57
2020-11-11 11:00:00 18 8 Este 14 Norte 0 -- -- 65
2020-11-11 10:00:00 16.6 0 Calma 4 Norte 0 -- -- 77
2020-11-11 09:00:00 12.1 0 Calma -- -- 0 -- -- 97
2020-11-11 08:00:00 8.6 0 Calma -- -- 0 -- -- 94
2020-11-11 07:00:00 8.4 0 Calma -- -- 0 -- -- 91
2020-11-11 06:00:00 8.6 0 Calma 0 Calma 0 -- -- 90
2020-11-11 05:00:00 9 0 Calma -- -- 0 -- -- 91
2020-11-11 04:00:00 9.4 0 Calma 0 Calma 0 -- -- 91
2020-11-11 03:00:00 9.7 0 Calma 2 Sudoeste 0 -- -- 90
2020-11-11 02:00:00 10.4 0 Calma 3 Sudoeste 0 -- -- 91
2020-11-11 01:00:00 10.5 0 Calma -- -- 0 -- -- 88
2020-11-11 00:00:00 10.9 0 Calma 3 Sudoeste 0 -- -- 87
2020-11-10 23:00:00 11.8 0 Calma 3 Sudoeste 0 -- -- 86
2020-11-10 22:00:00 12.8 0 Calma 3 Oeste 0 -- -- 86
2020-11-10 21:00:00 13.6 0 Calma 4 Noroeste 0 -- -- 84
2020-11-10 20:00:00 14.7 0 Calma 9 Nordeste 0 -- -- 81
2020-11-10 19:00:00 15.6 5 Nordeste 12 Nordeste 0 -- -- 79
2020-11-10 18:00:00 16.5 6 Nordeste 17 Nordeste 0 -- -- 76
2020-11-10 17:00:00 18.2 12 Nordeste 22 Norte 0 -- -- 70
2020-11-10 16:00:00 19.6 13 Nordeste 24 Nordeste 0 -- -- 66
2020-11-10 15:00:00 20.4 12 Nordeste 21 Nordeste 0 -- -- 56
2020-11-10 14:00:00 20.9 12 Nordeste 21 Norte 0 -- -- 59
2020-11-10 13:00:00 20.6 7 Norte 12 Norte 0 -- -- 55
2020-11-10 12:00:00 20.4 0 Calma 9 Sudoeste 0 -- -- 61
2020-11-10 11:00:00 18.6 3 Noroeste 8 Noroeste 0 -- -- 72
2020-11-10 10:00:00 17.4 0 Calma 5 Nordeste 0 -- -- 85
2020-11-10 09:00:00 12.4 0 Calma -- -- 0 -- -- 98
2020-11-10 08:00:00 9.7 0 Calma 0 Calma 0 -- -- 98
2020-11-10 07:00:00 9.5 0 Calma 2 Sudoeste 0 -- -- 97
2020-11-10 06:00:00 9.9 0 Calma -- -- 0 -- -- 98
2020-11-10 05:00:00 10.2 0 Calma 4 Sudeste 0 -- -- 98
2020-11-10 04:00:00 10.8 0 Calma 3 Noroeste 0 -- -- 98
2020-11-10 03:00:00 11 0 Calma 5 Sur 0 -- -- 97
2020-11-10 02:00:00 11.4 0 Calma 6 Sur 0 -- -- 96
2020-11-10 01:00:00 12.2 3 Sur 5 Sur 0 -- -- 95
2020-11-10 00:00:00 12.2 0 Calma 3 Sudoeste 0 -- -- 90
2020-11-09 23:00:00 12.7 0 Calma 3 Sudoeste 0 -- -- 89
2020-11-09 22:00:00 13.6 0 Calma 5 Sudoeste 0 -- -- 89
2020-11-09 21:00:00 14.5 0 Calma 3 Sudoeste 0 -- -- 87
2020-11-09 20:00:00 15.6 0 Calma 2 Noroeste 0 -- -- 85
2020-11-09 19:00:00 17.1 2 Norte 8 Nordeste 0 -- -- 82
2020-11-09 18:00:00 18.3 6 Nordeste 12 Nordeste 0 -- -- 78
2020-11-09 17:00:00 19.7 6 Nordeste 14 Nordeste 0 -- -- 69
2020-11-09 16:00:00 20.7 9 Nordeste 17 Nordeste 0 -- -- 64
2020-11-09 15:00:00 21.6 7 Nordeste 18 Nordeste 0 -- -- 60
2020-11-09 14:00:00 22 8 Nordeste 12 Nordeste 0 -- -- 58
2020-11-09 13:00:00 21.8 2 Este 11 Nordeste 0 -- -- 60
2020-11-09 12:00:00 20.7 4 Nordeste 12 Norte 0 -- -- 68
2020-11-09 11:00:00 19.3 0 Calma 0 Calma 0 -- -- 78
2020-11-09 10:00:00 16.9 0 Calma 0 Calma 0 -- -- 98
2020-11-09 09:00:00 13.7 0 Calma -- -- 0 -- -- 100
2020-11-09 08:00:00 12.1 0 Calma -- -- 0 -- -- 99
2020-11-09 07:00:00 12.8 0 Calma 0 Calma 0 -- -- 99
2020-11-09 06:00:00 13.6 0 Calma -- -- 0 -- -- 98
2020-11-09 05:00:00 13.3 0 Calma -- -- 0 -- -- 98
2020-11-09 04:00:00 14.1 0 Calma 0 Calma 0 -- -- 98
2020-11-09 03:00:00 13.1 0 Calma 0 Calma 0 -- -- 97
2020-11-09 02:00:00 12.7 0 Calma -- -- 0 -- -- 90
2020-11-09 01:00:00 13.3 0 Calma -- -- 0 -- -- 89
2020-11-09 00:00:00 13.9 0 Calma -- -- 0 -- -- 90
2020-11-08 23:00:00 14.4 0 Calma -- -- 0 -- -- 89
2020-11-08 22:00:00 14.4 0 Calma 0 Calma 0 -- -- 87
2020-11-08 21:00:00 14.9 0 Calma 0 Calma 0 -- -- 86
2020-11-08 20:00:00 15.7 0 Calma -- -- 0 -- -- 84
2020-11-08 19:00:00 16.6 0 Calma 4 Oeste 0 -- -- 82
2020-11-08 18:00:00 17.9 0 Calma 6 Norte 0 -- -- 77
2020-11-08 17:00:00 19.6 4 Nordeste 12 Nordeste 0 -- -- 70
2020-11-08 16:00:00 21.6 5 Norte 13 Oeste 0 -- -- 62
2020-11-08 15:00:00 22 4 Oeste 9 Oeste 0 -- -- 56
2020-11-08 14:00:00 22.3 4 Noroeste 10 Noroeste 0 -- -- 55
2020-11-08 13:00:00 22.5 5 Sudoeste 12 Sudoeste 0 -- -- 49
2020-11-08 12:00:00 21.6 4 Sudeste 9 Sur 0 -- -- 49
2020-11-08 11:00:00 20.5 5 Sur 10 Sur 0 -- -- 74
2020-11-08 10:00:00 18.6 3 Sudoeste 8 Sudoeste 0 -- -- 94
2020-11-08 09:00:00 13 2 Este 4 Sudeste 0 -- -- 100
2020-11-08 08:00:00 11.3 0 Calma -- -- 0 -- -- 99
2020-11-08 07:00:00 11.7 0 Calma 3 Sur 0 -- -- 99
2020-11-08 06:00:00 11 0 Calma 2 Sudeste 0 -- -- 97
2020-11-08 05:00:00 11.9 0 Calma 2 Sur 0 -- -- 96
2020-11-08 04:00:00 12.1 0 Calma 3 Sur 0 -- -- 90
2020-11-08 03:00:00 13.1 0 Calma 3 Sudoeste 0 -- -- 91
2020-11-08 02:00:00 14.3 0 Calma 9 Sur 0 -- -- 90
2020-11-08 01:00:00 15.5 4 Sur 8 Sur 0 -- -- 89
2020-11-08 00:00:00 15.7 6 Sur 9 Sur 0 -- -- 87
2020-11-07 23:00:00 16.2 4 Sudeste 8 Sudoeste 0 -- -- 83
2020-11-07 22:00:00 16.8 4 Sur 10 Sur 0 -- -- 82
2020-11-07 21:00:00 16.8 4 Sur 9 Sur 0 -- -- 78
2020-11-07 20:00:00 17.7 5 Sudoeste 10 Sudoeste 0 -- -- 73
2020-11-07 19:00:00 18 6 Sudoeste 9 Sudoeste 0 -- -- 71
2020-11-07 18:00:00 19.5 3 Sur 10 Sur 0 -- -- 67
2020-11-07 17:00:00 21.8 6 Sudoeste 14 Sur 0.2 -- -- 56
2020-11-07 16:00:00 22.8 4 Sur 10 Sudoeste 0 -- -- 56
2020-11-07 15:00:00 20.7 0 Calma 12 Oeste 0 -- -- 67
2020-11-07 14:00:00 19.4 6 Noroeste 9 Noroeste 0 -- -- 74
2020-11-07 13:00:00 17 3 Este 28 Sudeste 5.4 -- -- 81
2020-11-07 12:00:00 17.6 5 Sur 20 Sur 0.4 -- -- 80
2020-11-07 11:00:00 17.6 6 Sur 22 Sudoeste 0.8 -- -- 76
2020-11-07 10:00:00 19.8 11 Sudoeste 31 Sudoeste 0 -- -- 65
2020-11-07 09:00:00 19.8 9 Sudeste 17 Sudeste 0 -- -- 81
2020-11-07 08:00:00 18.9 6 Sudeste 12 Sudeste 0 -- -- 84
2020-11-07 07:00:00 19 3 Oeste 14 Oeste 0 -- -- 83
2020-11-07 06:00:00 19.5 2 Sudeste 19 Sudeste 0 -- -- 81
2020-11-07 05:00:00 19.6 8 Sudeste 21 Sudeste 0 -- -- 81
2020-11-07 04:00:00 19.3 7 Este 21 Este 0 -- -- 81
2020-11-07 03:00:00 19.1 10 Este 23 Sudeste 0 -- -- 81
2020-11-07 02:00:00 19 8 Este 23 Este 0 -- -- 82
2020-11-07 01:00:00 19 8 Este 20 Este 0 -- -- 82
2020-11-07 00:00:00 19.1 9 Este 17 Este 0 -- -- 82
2020-11-06 23:00:00 19.3 7 Este 18 Este 0 -- -- 81
2020-11-06 22:00:00 19.4 12 Este 21 Este 0 -- -- 81
2020-11-06 21:00:00 19.4 10 Este 21 Este 0 -- -- 80
2020-11-06 20:00:00 19.6 9 Este 17 Nordeste 0 -- -- 79
2020-11-06 19:00:00 19.6 9 Este 21 Este 0 -- -- 79
2020-11-06 18:00:00 19.7 10 Este 24 Este 0 -- -- 77
2020-11-06 17:00:00 20.3 13 Este 27 Este 0 -- -- 73
2020-11-06 16:00:00 20.8 14 Este 29 Este 0 -- -- 70
2020-11-06 15:00:00 21.4 17 Este 29 Este 0 -- -- 68
2020-11-06 14:00:00 21.3 14 Este 27 Este 0 -- -- 67
2020-11-06 13:00:00 20.9 16 Este 27 Este 0 -- -- 70
2020-11-06 12:00:00 20.7 14 Este 27 Este 0 -- -- 71
2020-11-06 11:00:00 20.4 15 Este 26 Este 0 -- -- 72
2020-11-06 10:00:00 19.9 14 Este 25 Nordeste 0 -- -- 76
2020-11-06 09:00:00 19.1 9 Nordeste 15 Nordeste 0 -- -- 81
2020-11-06 08:00:00 18.5 9 Nordeste 14 Nordeste 0 -- -- 85
2020-11-06 07:00:00 17.9 6 Nordeste 8 Norte 0 -- -- 87
2020-11-06 06:00:00 17.7 3 Norte 6 Norte 0 -- -- 84
2020-11-06 05:00:00 18 4 Norte 11 Nordeste 0 -- -- 83
2020-11-06 04:00:00 18.5 5 Norte 13 Nordeste 0 -- -- 82
2020-11-06 03:00:00 18.6 6 Nordeste 13 Nordeste 0 -- -- 82
2020-11-06 02:00:00 18.7 6 Este 14 Este 0 -- -- 80
2020-11-06 01:00:00 18.8 9 Este 22 Este 0 -- -- 79
2020-11-06 00:00:00 18.8 7 Este 20 Este 0 -- -- 78
2020-11-05 23:00:00 18.7 9 Este 23 Nordeste 0 -- -- 80
2020-11-05 22:00:00 18.6 11 Este 26 Este 0 -- -- 80
2020-11-05 21:00:00 18.7 11 Este 25 Nordeste 0 -- -- 77
2020-11-05 20:00:00 18.6 11 Este 23 Este 0 -- -- 77
2020-11-05 19:00:00 18.7 13 Este 24 Este 0 -- -- 76
2020-11-05 18:00:00 18.9 12 Este 22 Este 0 -- -- 74
2020-11-05 17:00:00 19.2 11 Este 30 Nordeste 0 -- -- 71
2020-11-05 16:00:00 19.4 13 Este 32 Este 0 -- -- 69
2020-11-05 15:00:00 19.5 13 Este 31 Este 0 -- -- 68
2020-11-05 14:00:00 19.6 17 Este 29 Este 0 -- -- 65
2020-11-05 13:00:00 19.9 19 Este 33 Este 0 -- -- 61
2020-11-05 12:00:00 20.1 18 Este 33 Este 0 -- -- 57
2020-11-05 11:00:00 20 15 Este 35 Este 0 -- -- 59
2020-11-05 10:00:00 18.6 13 Nordeste 23 Nordeste 0 -- -- 73
2020-11-05 09:00:00 17.8 10 Nordeste 17 Norte 0 -- -- 76
2020-11-05 08:00:00 16.7 9 Nordeste 17 Nordeste 0 -- -- 78
2020-11-05 07:00:00 16.5 10 Nordeste 17 Nordeste 0 -- -- 78
2020-11-05 06:00:00 16.2 7 Nordeste 14 Norte 0 -- -- 80
2020-11-05 05:00:00 15.8 8 Nordeste 15 Nordeste 0 -- -- 81
2020-11-05 04:00:00 15.4 9 Nordeste 17 Nordeste 0 -- -- 79
2020-11-05 03:00:00 15.1 7 Nordeste 12 Nordeste 0 -- -- 77
2020-11-05 02:00:00 15.9 10 Nordeste 17 Nordeste 0 -- -- 73
2020-11-05 01:00:00 16.3 8 Nordeste 22 Nordeste 0 -- -- 70
2020-11-05 00:00:00 16.3 12 Nordeste 30 Nordeste 0 -- -- 69
2020-11-04 23:00:00 16.3 20 Nordeste 31 Norte 0 -- -- 68
2020-11-04 22:00:00 16.2 18 Nordeste 27 Nordeste 0 -- -- 68
2020-11-04 21:00:00 16.2 16 Nordeste 30 Nordeste 0 -- -- 69
2020-11-04 20:00:00 16.2 18 Nordeste 32 Nordeste 0 -- -- 67
2020-11-04 19:00:00 16.2 17 Nordeste 32 Nordeste 0 -- -- 66
2020-11-04 18:00:00 16.3 14 Nordeste 33 Nordeste 0 -- -- 67
2020-11-04 17:00:00 17.1 18 Nordeste 28 Nordeste 0 -- -- 64
2020-11-04 16:00:00 17.5 17 Nordeste 33 Nordeste 0 -- -- 63
2020-11-04 15:00:00 17.6 17 Nordeste 31 Este 0 -- -- 63
2020-11-04 14:00:00 17.9 18 Nordeste 31 Nordeste 0 -- -- 62
2020-11-04 13:00:00 17.8 15 Nordeste 30 Este 0 -- -- 63
2020-11-04 12:00:00 17.9 16 Nordeste 31 Nordeste 0 -- -- 62
2020-11-04 11:00:00 17.5 18 Nordeste 32 Nordeste 0 -- -- 64
2020-11-04 10:00:00 17.7 18 Nordeste 27 Nordeste 0 -- -- 64
2020-11-04 09:00:00 16.7 12 Nordeste 18 Nordeste 0 -- -- 74
2020-11-04 08:00:00 14.3 0 Calma 5 Noroeste 0 -- -- 85
2020-11-04 07:00:00 14.8 2 Norte 8 Nordeste 0 -- -- 80
2020-11-04 06:00:00 15.3 6 Nordeste 16 Nordeste 0 -- -- 80
2020-11-04 05:00:00 15.7 7 Nordeste 12 Nordeste 0 -- -- 75
2020-11-04 04:00:00 16 7 Nordeste 19 Nordeste 0 -- -- 73
2020-11-04 03:00:00 16.1 10 Nordeste 22 Nordeste 0 -- -- 73
2020-11-04 02:00:00 16.2 11 Nordeste 23 Nordeste 0 -- -- 71
2020-11-04 01:00:00 16.5 12 Nordeste 19 Nordeste 0 -- -- 71
2020-11-04 00:00:00 16.6 10 Nordeste 20 Nordeste 0 -- -- 73
2020-11-03 23:00:00 16.7 11 Nordeste 23 Nordeste 0 -- -- 72
2020-11-03 22:00:00 17 12 Nordeste 23 Nordeste 0 -- -- 74
2020-11-03 21:00:00 17.2 15 Nordeste 25 Norte 0 -- -- 74
2020-11-03 20:00:00 17.3 6 Nordeste 10 Nordeste 0 -- -- 68
2020-11-03 19:00:00 17.4 6 Nordeste 12 Nordeste 0 -- -- 68
2020-11-03 18:00:00 18.1 6 Nordeste 19 Nordeste 0 -- -- 65
2020-11-03 17:00:00 18.8 12 Nordeste 21 Nordeste 0 -- -- 60
2020-11-03 16:00:00 19.9 12 Nordeste 19 Nordeste 0 -- -- 57
2020-11-03 15:00:00 20.7 13 Nordeste 20 Nordeste 0 -- -- 56
2020-11-03 14:00:00 21 12 Nordeste 21 Norte 0 -- -- 55
2020-11-03 13:00:00 21.4 3 Nordeste 14 Nordeste 0 -- -- 53
2020-11-03 12:00:00 20.4 10 Nordeste 23 Este 0 -- -- 59
2020-11-03 11:00:00 18.9 0 Calma 6 Norte -- -- -- 65
2020-11-03 10:00:00 -- 3 Norte 6 Noroeste 0 -- -- --
2020-11-03 09:00:00 16.6 0 Calma 2 Nordeste 0 -- -- 81
2020-11-03 08:00:00 13.5 0 Calma 3 Noroeste 0 -- -- 95
2020-11-03 07:00:00 12.9 0 Calma 2 Oeste 0 -- -- 95
2020-11-03 06:00:00 12.8 0 Calma 3 Norte 0 -- -- 94
2020-11-03 05:00:00 13.5 0 Calma 7 Sur 0 -- -- 95
2020-11-03 04:00:00 13.6 3 Sudeste 7 Sur 0 -- -- 96
2020-11-03 03:00:00 12.5 0 Calma 0 Calma 0 -- -- 90
2020-11-03 02:00:00 12.8 0 Calma -- -- 0 -- -- 87
2020-11-03 01:00:00 13.2 0 Calma 6 Sur 0 -- -- 87
2020-11-03 00:00:00 13.7 2 Sur 7 Sur 0 -- -- 91
2020-11-02 23:00:00 13.2 3 Sur 6 Sur 0 -- -- 86
2020-11-02 22:00:00 13.7 3 Sudoeste 6 Sur 0 -- -- 85
2020-11-02 21:00:00 14.3 4 Sur 7 Sudeste 0 -- -- 81
2020-11-02 20:00:00 15.5 3 Sur 7 Sur 0 -- -- 77
2020-11-02 19:00:00 16.8 4 Sur 10 Sur 0 -- -- 72
2020-11-02 18:00:00 18.7 5 Sur 13 Sur 0 -- -- 64
2020-11-02 17:00:00 21.4 7 Sudoeste 22 Sudoeste 0 -- -- 56
2020-11-02 16:00:00 22.2 10 Oeste 21 Oeste 0 -- -- 54
2020-11-02 15:00:00 23.3 8 Sudoeste 21 Oeste 0 -- -- 47
2020-11-02 14:00:00 23.5 8 Sudoeste 15 Sudoeste 0 -- -- 45
2020-11-02 13:00:00 22.8 8 Sudoeste 19 Sudoeste 0 -- -- 51
2020-11-02 12:00:00 21.4 9 Sudoeste 19 Sudoeste 0 -- -- 56
2020-11-02 11:00:00 19.9 10 Sudoeste 20 Sudoeste 0 -- -- 65
2020-11-02 10:00:00 18.5 7 Sudoeste 14 Sudoeste 0 -- -- 74
2020-11-02 09:00:00 16.3 4 Sur 8 Sur 0 -- -- 95
2020-11-02 08:00:00 13.3 5 Sur 8 Sur 0 -- -- 99
2020-11-02 07:00:00 11.9 2 Sur 7 Sur 0 -- -- 97
2020-11-02 06:00:00 13.3 4 Sur 10 Sur 0.2 -- -- 98
2020-11-02 05:00:00 13.4 4 Sur 8 Sur 0 -- -- 98
2020-11-02 04:00:00 13.5 4 Sur 7 Sur 0 -- -- 96
2020-11-02 03:00:00 14 4 Sur 7 Sur 0 -- -- 96
2020-11-02 02:00:00 14.1 4 Sur 7 Sur 0 -- -- 92
2020-11-02 01:00:00 14.2 4 Sur 8 Sudoeste 0 -- -- 89
2020-11-02 00:00:00 14.2 3 Sur 8 Sur 0 -- -- 86
2020-11-01 23:00:00 14.6 3 Sur 7 Sur 0 -- -- 83
2020-11-01 22:00:00 15.2 4 Sur 9 Sur 0 -- -- 82
2020-11-01 21:00:00 16 4 Sudoeste 10 Sur 0 -- -- 80
2020-11-01 20:00:00 16.1 3 Sur 11 Sur 0 -- -- 78
2020-11-01 19:00:00 17 4 Sur 8 Sudoeste 0 -- -- 75
2020-11-01 18:00:00 18.6 4 Sudoeste 16 Sudoeste 0 -- -- 68
2020-11-01 17:00:00 21.1 9 Oeste 18 Sudoeste 0 -- -- 58
2020-11-01 16:00:00 22.3 10 Oeste 19 Sudoeste 0 -- -- 53
2020-11-01 15:00:00 22.9 10 Oeste 19 Sudoeste 0 -- -- 50
2020-11-01 14:00:00 22.7 8 Oeste 20 Oeste 0 -- -- 48
2020-11-01 13:00:00 22.5 8 Sudoeste 17 Sudoeste 0 -- -- 52
2020-11-01 12:00:00 21.4 9 Sudoeste 19 Oeste 0 -- -- 58
2020-11-01 11:00:00 19.9 10 Sudoeste 19 Sudoeste 0 -- -- 63
2020-11-01 10:00:00 18.7 6 Sur 13 Sur 0 -- -- 71
2020-11-01 09:00:00 15.9 3 Sur 8 Sur 0 -- -- 94
2020-11-01 08:00:00 10.8 2 Sur 6 Sur 0 -- -- 97
2020-11-01 07:00:00 12.2 5 Sur 10 Sur 0 -- -- 98
2020-11-01 06:00:00 10.7 3 Sudeste 7 Sudeste 0 -- -- 98
2020-11-01 05:00:00 10.2 0 Calma 6 Sudoeste 0 -- -- 89
2020-11-01 04:00:00 11.6 3 Sudoeste 6 Sur 0 -- -- 94
2020-11-01 03:00:00 11.7 0 Calma 8 Sudoeste 0 -- -- 88
2020-11-01 02:00:00 13.4 8 Sur 12 Sur 0 -- -- 94
2020-11-01 01:00:00 13.5 6 Sur 9 Sur 0 -- -- 92
2020-11-01 00:00:00 12.6 0 Calma 7 Sur 0 -- -- 86
2020-10-31 23:00:00 13.8 6 Sur 9 Sur 0 -- -- 86
2020-10-31 22:00:00 14.6 4 Sur 9 Sur 0 -- -- 82
2020-10-31 21:00:00 15.2 4 Sur 9 Sur 0 -- -- 80
2020-10-31 20:00:00 15.6 2 Sur 6 Sur 0 -- -- 73
2020-10-31 19:00:00 16.9 3 Sur 8 Sudoeste 0 -- -- 69
2020-10-31 18:00:00 18.7 4 Sudoeste 17 Sudoeste 0 -- -- 58
2020-10-31 17:00:00 21.6 8 Oeste 18 Oeste 0 -- -- 50
2020-10-31 16:00:00 23 10 Oeste 19 Sur 0 -- -- 43
2020-10-31 15:00:00 23.9 10 Sudoeste 19 Sudoeste 0 -- -- 40
2020-10-31 14:00:00 24.3 7 Sudoeste 19 Sudoeste 0 -- -- 38
2020-10-31 13:00:00 23 6 Oeste 14 Noroeste 0 -- -- 39
2020-10-31 12:00:00 22.2 5 Sur 14 Sudoeste 0 -- -- 48
2020-10-31 11:00:00 20.2 9 Oeste 15 Sudoeste 0 -- -- 56
2020-10-31 10:00:00 18 9 Sudoeste 15 Sudoeste 0 -- -- 86
2020-10-31 09:00:00 13.9 0 Calma 5 Sudoeste 0 -- -- 98
2020-10-31 08:00:00 9.9 0 Calma 2 Sudeste 0 -- -- 98
2020-10-31 07:00:00 9.5 0 Calma -- -- 0 -- -- 95
2020-10-31 06:00:00 10.5 0 Calma 3 Sur 0 -- -- 97
2020-10-31 05:00:00 10.3 0 Calma 6 Sur 0.2 -- -- 96
2020-10-31 04:00:00 11.8 4 Sur 6 Sur 0 -- -- 98
2020-10-31 03:00:00 11.6 0 Calma 3 Sur 0 -- -- 89
2020-10-31 02:00:00 12.1 0 Calma 7 Sur 0 -- -- 87
2020-10-31 01:00:00 14.7 3 Sur 6 Sur 0 -- -- 94
2020-10-31 00:00:00 15.3 2 Sur 6 Sur 0 -- -- 95
2020-10-30 23:00:00 15.5 4 Sur 8 Sudoeste 0 -- -- 95
2020-10-30 22:00:00 13.5 0 Calma 6 Sur 0 -- -- 82
2020-10-30 21:00:00 13.6 0 Calma 5 Sur 0 -- -- 75
2020-10-30 20:00:00 15 0 Calma 5 Sudoeste 0 -- -- 73
2020-10-30 19:00:00 16.5 0 Calma 6 Oeste 0 -- -- 65
2020-10-30 18:00:00 19.6 4 Oeste 8 Sudoeste 0 -- -- 52
2020-10-30 17:00:00 22.6 4 Oeste 15 Sudoeste 0 -- -- 43
2020-10-30 16:00:00 23.5 7 Sudoeste 16 Oeste 0 -- -- 40
2020-10-30 15:00:00 23.7 10 Sudoeste 18 Oeste 0 -- -- 36
2020-10-30 14:00:00 23.8 9 Oeste 18 Oeste 0 -- -- 37
2020-10-30 13:00:00 23.8 8 Sudoeste 17 Sudoeste 0 -- -- 37
2020-10-30 12:00:00 22.4 9 Sudoeste 18 Sur 0 -- -- 43
2020-10-30 11:00:00 20.9 9 Sudoeste 18 Noroeste 0 -- -- 66
2020-10-30 10:00:00 18.9 9 Sudoeste 15 Oeste 0 -- -- 84
2020-10-30 09:00:00 15.7 3 Norte 9 Sudoeste 0 -- -- 98
2020-10-30 08:00:00 10.3 2 Sudoeste 6 Sudoeste 0 -- -- 98
2020-10-30 07:00:00 9.8 0 Calma 2 Sudoeste 0 -- -- 97
2020-10-30 06:00:00 11.1 0 Calma 2 Oeste 0 -- -- 97
2020-10-30 05:00:00 12.5 2 Sur 8 Sur 0 -- -- 94
2020-10-30 04:00:00 10.8 2 Sudeste 6 Sur 0 -- -- 86
2020-10-30 03:00:00 11.2 0 Calma 3 Sur 0 -- -- 85
2020-10-30 02:00:00 12.9 0 Calma 6 Sur 0 -- -- 93
2020-10-30 01:00:00 12.7 0 Calma 7 Sur 0 -- -- 88
2020-10-30 00:00:00 12.3 0 Calma 4 Sur 0 -- -- 83
2020-10-29 23:00:00 13 0 Calma 4 Sur 0 -- -- 83
2020-10-29 22:00:00 13.6 0 Calma 4 Sur 0 -- -- 81
2020-10-29 21:00:00 14.6 0 Calma 5 Sur 0 -- -- 78
2020-10-29 20:00:00 15.3 0 Calma 4 Sur 0 -- -- 71
2020-10-29 19:00:00 17.2 0 Calma 6 Norte 0 -- -- 67
2020-10-29 18:00:00 19.3 3 Noroeste 15 Sudoeste 0 -- -- 59
2020-10-29 17:00:00 21.3 8 Oeste 18 Oeste 0 -- -- 55
2020-10-29 16:00:00 22.8 12 Sudoeste 19 Oeste 0 -- -- 49
2020-10-29 15:00:00 22.6 2 Sudoeste 12 Norte 0 -- -- 43
2020-10-29 14:00:00 23.4 3 Este 10 Nordeste 0 -- -- 41
2020-10-29 13:00:00 22.3 5 Sudoeste 12 Sudoeste 0 -- -- 43
2020-10-29 12:00:00 21.3 0 Calma 11 Sudeste 0 -- -- 51
2020-10-29 11:00:00 20.3 3 Este 11 Este 0 -- -- 56
2020-10-29 10:00:00 18.2 0 Calma 4 Nordeste 0 -- -- 69
2020-10-29 09:00:00 14.7 0 Calma 0 Calma 0 -- -- 82
2020-10-29 08:00:00 10.6 0 Calma 2 Sudoeste 0 -- -- 90
2020-10-29 07:00:00 10 0 Calma 8 Sur 0 -- -- 87
2020-10-29 06:00:00 10.2 0 Calma 0 Calma 0 -- -- 86
2020-10-29 05:00:00 10.8 0 Calma 8 Norte 0 -- -- 87
2020-10-29 04:00:00 11.1 2 Sudeste 5 Sudeste 0 -- -- 86
2020-10-29 03:00:00 11.2 0 Calma 2 Sudoeste 0 -- -- 84
2020-10-29 02:00:00 12.1 0 Calma 3 Sudoeste 0 -- -- 83
2020-10-29 01:00:00 12.5 0 Calma 4 Sudeste 0 -- -- 82
2020-10-29 00:00:00 13.3 0 Calma 4 Sudoeste 0 -- -- 80
2020-10-28 23:00:00 14.4 0 Calma 6 Sudoeste 0 -- -- 78
2020-10-28 22:00:00 15.2 0 Calma 5 Sur 0 -- -- 74
2020-10-28 21:00:00 16.9 3 Sur 13 Sudoeste 0 -- -- 70
2020-10-28 20:00:00 17.1 9 Sudoeste 18 Sudoeste 0 -- -- 68
2020-10-28 19:00:00 17.5 3 Sur 12 Sudoeste 0 -- -- 63
2020-10-28 18:00:00 18.6 7 Sudoeste 16 Sudoeste 0 -- -- 54
2020-10-28 17:00:00 20.2 9 Sudoeste 22 Sudoeste 0 -- -- 47
2020-10-28 16:00:00 21.3 14 Sudoeste 25 Oeste 0 -- -- 40
2020-10-28 15:00:00 22.6 12 Sudoeste 23 Sudoeste 0 -- -- 35
2020-10-28 14:00:00 22.8 8 Oeste 18 Oeste 0 -- -- 32
2020-10-28 13:00:00 22.3 11 Sudoeste 19 Sudoeste 0 -- -- 34
2020-10-28 12:00:00 21.5 10 Sudoeste 19 Sudoeste 0 -- -- 40
2020-10-28 11:00:00 20.7 7 Sudoeste 15 Sudoeste 0 -- -- 46
2020-10-28 10:00:00 18.8 0 Calma 8 Sudoeste 0 -- -- 58
2020-10-28 09:00:00 12.7 3 Sur 6 Sur 0 -- -- 81
2020-10-28 08:00:00 9.3 2 Sur 4 Sur 0 -- -- 81
2020-10-28 07:00:00 8.4 0 Calma 0 Calma 0 -- -- 81
2020-10-28 06:00:00 8.3 0 Calma 2 Sudeste 0 -- -- 79
2020-10-28 05:00:00 8.6 0 Calma 4 Sur 0 -- -- 79
2020-10-28 04:00:00 8.8 0 Calma 2 Sudeste 0 -- -- 76
2020-10-28 03:00:00 9.4 0 Calma 0 Calma 0 -- -- 74
2020-10-28 02:00:00 9.7 0 Calma 6 Sur 0 -- -- 72
2020-10-28 01:00:00 11.4 0 Calma 8 Sur 0 -- -- 63
2020-10-28 00:00:00 12.6 3 Sur 9 Sudoeste 0 -- -- 58
2020-10-27 23:00:00 12.8 5 Sur 9 Sudoeste 0 -- -- 57
2020-10-27 22:00:00 13.2 5 Sudoeste 11 Sudoeste 0 -- -- 57
2020-10-27 21:00:00 13.4 4 Sudoeste 10 Sudoeste 0 -- -- 58
2020-10-27 20:00:00 13.7 3 Sur 10 Sudoeste 0 -- -- 55
2020-10-27 19:00:00 15 8 Sudoeste 14 Sudoeste 0 -- -- 50
2020-10-27 18:00:00 16.2 9 Sudoeste 21 Sudoeste 0 -- -- 48
2020-10-27 17:00:00 18.6 10 Sudoeste 25 Sudoeste 0 -- -- 39
2020-10-27 16:00:00 19.2 15 Sudoeste 25 Sudoeste 0 -- -- 37
2020-10-27 15:00:00 19.5 11 Sudoeste 25 Sudoeste 0 -- -- 34
2020-10-27 14:00:00 18.5 6 Noroeste 21 Noroeste 0 -- -- 32
2020-10-27 13:00:00 19.1 11 Oeste 24 Noroeste 0 -- -- 29
2020-10-27 12:00:00 18.9 8 Oeste 24 Oeste 0 -- -- 33
2020-10-27 11:00:00 18 14 Noroeste 22 Oeste 0 -- -- 35
2020-10-27 10:00:00 17.5 10 Oeste 19 Noroeste 0 -- -- 40
2020-10-27 09:00:00 16.1 7 Sudoeste 15 Sudoeste 0 -- -- 46
2020-10-27 08:00:00 14.2 6 Sudoeste 22 Oeste 0 -- -- 50
2020-10-27 07:00:00 14 11 Sudoeste 18 Sudoeste 0 -- -- 48
2020-10-27 06:00:00 13.6 8 Sudoeste 15 Sur 0 -- -- 50
2020-10-27 05:00:00 13.6 6 Sudoeste 26 Oeste 0 -- -- 49
2020-10-27 04:00:00 15.3 10 Oeste 23 Oeste 0 -- -- 40
2020-10-27 03:00:00 15.8 12 Oeste 30 Oeste 0 -- -- 39
2020-10-27 02:00:00 15.8 14 Oeste 33 Oeste 0 -- -- 40
2020-10-27 01:00:00 16.1 13 Oeste 33 Noroeste 0 -- -- 39
2020-10-27 00:00:00 16.1 14 Oeste 37 Oeste 0 -- -- 38
2020-10-26 23:00:00 15.4 9 Oeste 29 Noroeste 0 -- -- 43
2020-10-26 22:00:00 16 12 Oeste 27 Noroeste 0 -- -- 41
2020-10-26 21:00:00 16 11 Oeste 27 Sudoeste 0 -- -- 41
2020-10-26 20:00:00 15.2 8 Sur 24 Sudoeste 0 -- -- 42
2020-10-26 19:00:00 14.9 6 Sudoeste 17 Oeste 0 -- -- 45
2020-10-26 18:00:00 15.4 6 Sudoeste 28 Oeste 0 -- -- 47
2020-10-26 17:00:00 16.6 12 Oeste 39 Oeste 0 -- -- 40
2020-10-26 16:00:00 17.2 16 Oeste 40 Noroeste 0 -- -- 39
2020-10-26 15:00:00 17.3 18 Oeste 41 Oeste 0 -- -- 37
2020-10-26 14:00:00 17.4 18 Oeste 36 Oeste 0 -- -- 39
2020-10-26 13:00:00 17.5 17 Noroeste 38 Oeste 0 -- -- 40
2020-10-26 12:00:00 15.8 14 Oeste 25 Noroeste 0 -- -- 50
2020-10-26 11:00:00 15.3 8 Oeste 18 Oeste 0.2 -- -- 65
2020-10-26 10:00:00 15.3 6 Sudoeste 13 Sudoeste 0.2 -- -- 77
2020-10-26 09:00:00 15.7 5 Oeste 12 Oeste 0.2 -- -- 71
2020-10-26 08:00:00 16.5 2 Noroeste 13 Oeste 0 -- -- 75
2020-10-26 07:00:00 17.1 7 Oeste 21 Oeste 0 -- -- 71
2020-10-26 06:00:00 17.7 8 Sudoeste 17 Sudoeste 0.2 -- -- 76
2020-10-26 05:00:00 17.5 6 Sudoeste 21 Sudoeste 0 -- -- 79
2020-10-26 04:00:00 17.6 10 Sudoeste 24 Sur 0 -- -- 79
2020-10-26 03:00:00 17.8 11 Sudoeste 24 Sudoeste 0 -- -- 76
2020-10-26 02:00:00 18 9 Sudoeste 24 Sudoeste 0 -- -- 76
2020-10-26 01:00:00 17.8 11 Sudoeste 23 Sudoeste 0 -- -- 75
2020-10-26 00:00:00 17.6 9 Sudoeste 27 Sur 0 -- -- 78